Time;durP1;ratioP1;P1;durP2;ratioP2;P2;SDS_P1;SDS_P2;PMS_P1;PMS_P2;Temp;Humidity;BMP_temperature;BMP_pressure;BME280_temperature;BME280_humidity;BME280_pressure;Samples;Min_cycle;Max_cycle;Signal;HPM_P1;HPM_P2
2023/09/26 00:00:07;;;;;;;7.22;6.18;;;15.30;99.90;;;;;;4990696;28;20049;-91
2023/09/26 00:02:35;;;;;;;7.97;5.40;;;15.30;99.90;;;;;;5016687;28;20048;-92
2023/09/26 00:05:03;;;;;;;6.88;6.03;;;15.30;99.90;;;;;;5010721;28;20056;-80
2023/09/26 00:07:29;;;;;;;6.65;5.47;;;15.30;99.90;;;;;;5027288;28;20053;-81
2023/09/26 00:09:55;;;;;;;5.55;5.05;;;15.30;99.90;;;;;;5027145;28;20539;-81
2023/09/26 00:12:21;;;;;;;5.90;5.28;;;15.30;99.90;;;;;;4992524;28;20065;-82
2023/09/26 00:14:47;;;;;;;7.05;5.28;;;15.30;99.90;;;;;;4991453;28;20080;-81
2023/09/26 00:17:15;;;;;;;7.15;6.45;;;15.40;99.90;;;;;;4990655;28;20449;-81
2023/09/26 00:19:40;;;;;;;8.10;7.30;;;15.30;99.90;;;;;;5008210;28;20057;-81
2023/09/26 00:22:06;;;;;;;10.45;7.18;;;15.40;99.90;;;;;;4989332;28;20493;-81
2023/09/26 00:24:32;;;;;;;7.78;7.00;;;15.40;99.90;;;;;;4990026;28;20443;-81
2023/09/26 00:26:58;;;;;;;9.30;7.75;;;15.30;99.90;;;;;;4989682;28;20048;-81
2023/09/26 00:29:24;;;;;;;9.70;7.82;;;15.40;99.90;;;;;;5022085;28;20180;-81
2023/09/26 00:31:53;;;;;;;9.52;8.02;;;15.30;99.90;;;;;;5009827;28;20112;-81
2023/09/26 00:34:19;;;;;;;9.57;8.63;;;15.30;99.90;;;;;;5006764;28;20075;-81
2023/09/26 00:36:45;;;;;;;9.07;8.18;;;15.30;99.90;;;;;;5012849;28;20046;-81
2023/09/26 00:39:11;;;;;;;9.05;8.15;;;15.30;99.90;;;;;;5010749;28;20059;-81
2023/09/26 00:41:38;;;;;;;9.20;8.30;;;15.30;99.90;;;;;;4995472;28;20060;-81
2023/09/26 00:44:06;;;;;;;9.70;8.70;;;15.30;99.90;;;;;;5024786;28;20083;-81
2023/09/26 00:46:33;;;;;;;11.43;8.88;;;15.30;99.90;;;;;;5024914;28;20116;-81
2023/09/26 00:49:00;;;;;;;9.57;8.60;;;15.30;99.90;;;;;;5009155;28;20441;-81
2023/09/26 00:51:27;;;;;;;11.27;8.50;;;15.30;99.90;;;;;;4993616;28;20126;-81
2023/09/26 00:53:53;;;;;;;11.63;9.35;;;15.20;99.90;;;;;;5008717;28;20042;-81
2023/09/26 00:56:19;;;;;;;9.85;8.85;;;15.20;99.90;;;;;;4994376;28;20044;-81
2023/09/26 00:58:46;;;;;;;10.57;9.40;;;15.20;99.90;;;;;;4990840;28;20031;-81
2023/09/26 01:01:12;;;;;;;10.52;8.88;;;15.20;99.90;;;;;;4985986;28;20137;-81
2023/09/26 01:03:38;;;;;;;10.43;9.13;;;15.20;99.90;;;;;;4990274;28;20040;-81
2023/09/26 01:06:05;;;;;;;11.35;9.30;;;15.20;99.90;;;;;;4989066;28;20517;-81
2023/09/26 01:08:32;;;;;;;14.07;9.93;;;15.20;99.90;;;;;;5008236;28;20043;-81
2023/09/26 01:10:58;;;;;;;12.15;9.90;;;15.20;99.90;;;;;;5005600;28;20100;-81
2023/09/26 01:13:24;;;;;;;10.77;9.63;;;15.20;99.90;;;;;;5008407;28;20037;-81
2023/09/26 01:15:50;;;;;;;11.05;9.57;;;15.10;99.90;;;;;;5002785;28;20037;-81
2023/09/26 01:18:17;;;;;;;9.32;8.43;;;15.10;99.90;;;;;;4974938;28;20037;-81
2023/09/26 01:20:45;;;;;;;10.38;9.38;;;15.10;99.90;;;;;;5011670;28;20510;-81
2023/09/26 01:23:15;;;;;;;11.13;9.57;;;15.10;99.90;;;;;;5021956;28;20034;-81
2023/09/26 01:25:42;;;;;;;12.45;9.93;;;15.00;99.90;;;;;;5005645;28;20121;-81
2023/09/26 01:28:09;;;;;;;10.25;9.25;;;15.00;99.90;;;;;;4991891;28;20049;-81
2023/09/26 01:30:37;;;;;;;10.13;9.13;;;15.00;99.90;;;;;;5005937;28;20030;-81
2023/09/26 01:33:04;;;;;;;10.70;9.70;;;14.90;99.90;;;;;;5008894;28;20393;-81
2023/09/26 01:35:30;;;;;;;11.68;9.93;;;14.90;99.90;;;;;;5006777;28;20037;-81
2023/09/26 01:37:55;;;;;;;11.32;10.20;;;14.90;99.90;;;;;;4996337;28;20038;-81
2023/09/26 01:40:21;;;;;;;16.60;10.77;;;14.80;99.90;;;;;;5008509;28;20029;-81
2023/09/26 01:42:47;;;;;;;11.70;10.05;;;14.70;99.90;;;;;;5002964;28;20126;-81
2023/09/26 01:45:13;;;;;;;12.43;10.18;;;14.70;99.90;;;;;;5010485;28;20052;-81
2023/09/26 01:47:44;;;;;;;11.15;10.00;;;14.60;99.90;;;;;;4990828;28;20029;-82
2023/09/26 01:50:09;;;;;;;13.50;10.27;;;14.60;99.90;;;;;;5006870;28;20037;-81
2023/09/26 01:52:36;;;;;;;10.65;9.55;;;14.50;99.90;;;;;;5009577;28;20046;-81
2023/09/26 01:55:06;;;;;;;11.10;10.02;;;14.50;99.90;;;;;;5008935;28;20041;-81
2023/09/26 01:57:33;;;;;;;11.00;9.90;;;14.40;99.90;;;;;;4992308;28;20048;-81
2023/09/26 02:00:12;;;;;;;13.43;11.32;;;14.40;99.90;;;;;;5006646;28;20540;-81
2023/09/26 02:02:42;;;;;;;13.55;11.65;;;14.30;99.90;;;;;;5023101;28;20546;-81
2023/09/26 02:05:09;;;;;;;13.93;11.63;;;14.30;99.90;;;;;;4996105;28;20060;-81
2023/09/26 02:07:35;;;;;;;13.75;11.50;;;14.20;99.90;;;;;;4986444;28;20521;-81
2023/09/26 02:10:03;;;;;;;13.68;12.30;;;14.10;99.90;;;;;;4994342;28;20120;-81
2023/09/26 02:12:30;;;;;;;13.50;12.20;;;14.10;99.90;;;;;;5015766;28;20045;-81
2023/09/26 02:14:56;;;;;;;15.13;12.75;;;14.00;99.90;;;;;;5014986;28;20076;-81
2023/09/26 02:17:22;;;;;;;14.25;12.80;;;13.90;99.90;;;;;;4996988;28;20034;-81
2023/09/26 02:19:48;;;;;;;14.43;12.90;;;13.90;99.90;;;;;;4983278;28;20095;-81
2023/09/26 02:22:13;;;;;;;13.27;11.88;;;13.90;99.90;;;;;;5031702;28;20045;-81
2023/09/26 02:24:39;;;;;;;14.18;12.70;;;13.90;99.90;;;;;;5012272;28;20037;-81
2023/09/26 02:27:05;;;;;;;14.05;12.60;;;13.80;99.90;;;;;;4999093;28;20034;-81
2023/09/26 02:29:30;;;;;;;14.38;12.88;;;13.80;99.90;;;;;;4996429;28;20626;-81
2023/09/26 02:31:56;;;;;;;14.20;12.80;;;13.70;99.90;;;;;;4999431;28;20045;-80
2023/09/26 02:34:24;;;;;;;15.98;13.30;;;13.60;99.90;;;;;;4994380;28;20779;-81
2023/09/26 02:36:50;;;;;;;16.25;13.93;;;13.60;99.90;;;;;;4999582;28;20038;-81
2023/09/26 02:39:17;;;;;;;15.98;13.57;;;13.60;99.90;;;;;;4999780;28;20731;-80
2023/09/26 02:41:43;;;;;;;15.73;14.05;;;13.60;99.90;;;;;;5028308;28;20057;-81
2023/09/26 02:44:08;;;;;;;15.23;13.73;;;13.60;99.90;;;;;;5015010;28;20061;-81
2023/09/26 02:46:34;;;;;;;14.88;13.38;;;13.50;99.90;;;;;;4994585;28;20367;-80
2023/09/26 02:49:00;;;;;;;15.45;13.85;;;13.50;99.90;;;;;;5015152;28;20106;-80
2023/09/26 02:51:27;;;;;;;15.00;13.18;;;13.40;99.90;;;;;;5010524;28;20030;-81
2023/09/26 02:53:52;;;;;;;16.35;14.68;;;13.40;99.90;;;;;;4993988;28;20038;-81
2023/09/26 02:56:18;;;;;;;16.27;14.68;;;13.40;99.90;;;;;;5012285;28;20176;-81
2023/09/26 02:58:44;;;;;;;15.85;14.23;;;13.30;99.90;;;;;;5015498;28;20091;-81
2023/09/26 03:01:19;;;;;;;15.95;14.25;;;13.30;99.90;;;;;;4999003;28;20495;-81
2023/09/26 03:03:45;;;;;;;15.65;14.07;;;13.20;99.90;;;;;;5014708;28;20670;-81
2023/09/26 03:06:10;;;;;;;18.02;14.70;;;13.20;99.90;;;;;;4998089;28;20060;-81
2023/09/26 03:08:36;;;;;;;15.65;13.80;;;13.10;99.90;;;;;;5013702;28;20052;-81
2023/09/26 03:11:03;;;;;;;16.73;14.35;;;13.20;99.90;;;;;;4991220;28;20407;-81
2023/09/26 03:13:32;;;;;;;16.38;14.52;;;13.10;99.90;;;;;;4992932;28;20148;-81
2023/09/26 03:15:59;;;;;;;15.98;13.65;;;13.10;99.90;;;;;;5024508;28;20056;-80
2023/09/26 03:18:27;;;;;;;16.17;13.88;;;13.10;99.90;;;;;;5030958;28;20405;-80
2023/09/26 03:20:53;;;;;;;15.82;14.13;;;13.00;99.90;;;;;;4999992;28;20124;-80
2023/09/26 03:23:24;;;;;;;16.60;14.45;;;12.90;99.90;;;;;;5012669;28;20055;-80
2023/09/26 03:25:50;;;;;;;16.45;14.75;;;12.90;99.90;;;;;;5012710;28;20025;-80
2023/09/26 03:28:16;;;;;;;17.38;15.57;;;12.90;99.90;;;;;;4981873;28;20117;-80
2023/09/26 03:30:43;;;;;;;16.27;14.60;;;12.80;99.90;;;;;;4995515;28;20473;-80
2023/09/26 03:33:10;;;;;;;15.27;13.68;;;12.80;99.90;;;;;;4982278;28;20362;-80
2023/09/26 03:35:36;;;;;;;15.77;14.18;;;12.80;99.90;;;;;;5012254;28;20048;-80
2023/09/26 03:38:02;;;;;;;15.75;14.00;;;12.80;99.90;;;;;;5024643;28;20050;-80
2023/09/26 03:40:28;;;;;;;14.93;13.43;;;12.80;99.90;;;;;;4997855;28;20048;-80
2023/09/26 03:42:54;;;;;;;16.35;14.75;;;12.80;99.90;;;;;;4998175;28;20156;-80
2023/09/26 03:45:21;;;;;;;17.27;14.98;;;12.80;99.90;;;;;;5014481;28;20034;-80
2023/09/26 03:47:47;;;;;;;15.30;13.65;;;12.70;99.90;;;;;;4981825;28;20037;-80
2023/09/26 03:50:13;;;;;;;16.48;14.82;;;12.70;99.90;;;;;;5014270;28;20041;-80
2023/09/26 03:52:38;;;;;;;17.27;15.50;;;12.70;99.90;;;;;;4992038;28;20107;-80
2023/09/26 03:55:04;;;;;;;15.52;13.95;;;12.60;99.90;;;;;;5008143;28;20124;-80
2023/09/26 03:57:31;;;;;;;16.00;14.40;;;12.60;99.90;;;;;;4978403;28;20760;-80
2023/09/26 03:59:57;;;;;;;17.45;14.32;;;12.60;99.90;;;;;;4994813;28;20095;-80
2023/09/26 04:02:22;;;;;;;17.40;14.60;;;12.60;99.90;;;;;;4978788;28;20041;-80
2023/09/26 04:04:48;;;;;;;16.25;14.55;;;12.50;99.90;;;;;;4981381;28;20037;-80
2023/09/26 04:07:14;;;;;;;16.13;14.10;;;12.50;99.90;;;;;;5010819;28;20057;-81
2023/09/26 04:09:40;;;;;;;17.50;15.20;;;12.50;99.90;;;;;;5005027;28;20457;-80
2023/09/26 04:12:06;;;;;;;17.63;15.40;;;12.40;99.90;;;;;;5013910;28;20095;-80
2023/09/26 04:14:32;;;;;;;16.63;14.95;;;12.40;99.90;;;;;;4997660;28;20033;-80
2023/09/26 04:16:58;;;;;;;16.50;14.57;;;12.40;99.90;;;;;;5026175;28;20041;-80
2023/09/26 04:19:24;;;;;;;18.08;15.93;;;12.40;99.90;;;;;;5026649;28;20179;-80
2023/09/26 04:21:52;;;;;;;17.73;15.30;;;12.40;99.90;;;;;;5011355;28;20139;-80
2023/09/26 04:24:19;;;;;;;17.70;14.98;;;12.40;99.90;;;;;;4987489;28;20367;-80
2023/09/26 04:26:45;;;;;;;18.80;15.57;;;12.40;99.90;;;;;;4992054;28;20030;-80
2023/09/26 04:29:11;;;;;;;17.17;15.07;;;12.40;99.90;;;;;;4996861;28;20555;-81
2023/09/26 04:31:37;;;;;;;15.98;14.35;;;12.30;99.90;;;;;;5013592;28;20040;-80
2023/09/26 04:34:02;;;;;;;16.67;14.95;;;12.30;99.90;;;;;;5010790;28;20041;-80
2023/09/26 04:36:31;;;;;;;16.50;14.80;;;12.20;99.90;;;;;;5013219;28;20244;-80
2023/09/26 04:38:57;;;;;;;16.75;15.10;;;12.30;99.90;;;;;;5025096;28;20049;-80
2023/09/26 04:41:23;;;;;;;16.73;15.02;;;12.30;99.90;;;;;;5026872;28;20042;-80
2023/09/26 04:43:48;;;;;;;16.23;14.60;;;12.30;99.90;;;;;;5006270;28;20060;-80
2023/09/26 04:46:16;;;;;;;16.98;15.18;;;12.20;99.90;;;;;;5008725;28;20542;-80
2023/09/26 04:48:43;;;;;;;16.05;14.30;;;12.20;99.90;;;;;;4997812;28;20049;-80
2023/09/26 04:51:14;;;;;;;16.45;14.60;;;12.20;99.90;;;;;;5004252;28;20048;-81
2023/09/26 04:53:40;;;;;;;15.63;14.02;;;12.20;99.90;;;;;;5012476;28;20068;-80
2023/09/26 04:56:07;;;;;;;16.67;14.85;;;12.20;99.90;;;;;;5027399;28;20045;-80
2023/09/26 04:58:33;;;;;;;16.75;13.77;;;12.20;99.90;;;;;;5012374;28;20095;-80
2023/09/26 05:01:02;;;;;;;15.15;13.25;;;12.20;99.90;;;;;;5012298;28;20465;-81
2023/09/26 05:03:29;;;;;;;16.52;14.50;;;12.20;99.90;;;;;;4997420;28;20041;-81
2023/09/26 05:05:54;;;;;;;15.52;13.45;;;12.20;99.90;;;;;;5025385;28;20057;-81
2023/09/26 05:08:20;;;;;;;14.77;12.65;;;12.20;99.90;;;;;;5008864;28;20041;-80
2023/09/26 05:10:48;;;;;;;15.30;13.70;;;12.20;99.90;;;;;;5013069;28;20041;-81
2023/09/26 05:13:15;;;;;;;17.35;13.23;;;12.20;99.90;;;;;;5013654;28;20057;-80
2023/09/26 05:15:40;;;;;;;16.33;13.65;;;12.20;99.90;;;;;;5028631;28;20033;-81
2023/09/26 05:18:06;;;;;;;15.23;13.68;;;12.20;99.90;;;;;;5006268;28;20413;-80
2023/09/26 05:20:32;;;;;;;16.90;14.18;;;12.20;99.90;;;;;;4996887;28;20040;-80
2023/09/26 05:23:00;;;;;;;14.13;12.65;;;12.10;99.90;;;;;;5012719;28;20652;-81
2023/09/26 05:25:26;;;;;;;15.27;13.63;;;12.10;99.90;;;;;;5027076;28;20077;-81
2023/09/26 05:27:52;;;;;;;15.68;12.95;;;12.10;99.90;;;;;;4974826;28;20067;-81
2023/09/26 05:30:18;;;;;;;15.60;14.00;;;12.10;99.90;;;;;;5008433;28;20069;-81
2023/09/26 05:32:43;;;;;;;18.20;14.00;;;12.10;99.90;;;;;;5006460;28;20045;-81
2023/09/26 05:35:09;;;;;;;15.48;13.00;;;12.00;99.90;;;;;;5022875;28;20488;-79
2023/09/26 05:37:36;;;;;;;18.10;14.10;;;12.00;99.90;;;;;;5012084;28;20069;-80
2023/09/26 05:40:06;;;;;;;18.17;13.70;;;12.00;99.90;;;;;;5004265;28;20037;-81
2023/09/26 05:42:34;;;;;;;14.57;13.07;;;12.00;99.90;;;;;;5007265;28;20136;-81
2023/09/26 05:44:59;;;;;;;16.38;13.88;;;12.10;99.90;;;;;;4992308;28;20048;-81
2023/09/26 05:47:25;;;;;;;14.30;13.00;;;12.10;99.90;;;;;;4997857;28;20034;-81
2023/09/26 05:49:51;;;;;;;16.25;14.55;;;12.00;99.90;;;;;;4994865;28;20033;-81
2023/09/26 05:52:19;;;;;;;14.77;13.02;;;12.10;99.90;;;;;;5016679;28;20473;-80
2023/09/26 05:54:45;;;;;;;14.85;13.30;;;12.10;99.90;;;;;;5023242;28;20050;-80
2023/09/26 05:57:11;;;;;;;15.35;13.73;;;12.10;99.90;;;;;;5007951;28;20052;-80
2023/09/26 05:59:37;;;;;;;14.23;12.60;;;12.10;99.90;;;;;;4989395;28;20045;-80
2023/09/26 06:02:02;;;;;;;13.57;11.95;;;12.20;99.90;;;;;;4972346;28;20409;-80
2023/09/26 06:04:28;;;;;;;14.48;12.75;;;12.30;99.90;;;;;;4986121;28;20039;-80
2023/09/26 06:06:54;;;;;;;14.80;12.25;;;12.40;99.90;;;;;;4971439;28;20493;-80
2023/09/26 06:09:20;;;;;;;15.05;11.68;;;12.40;99.90;;;;;;4985416;28;20029;-80
2023/09/26 06:11:45;;;;;;;15.75;13.05;;;12.40;99.90;;;;;;5002762;28;20147;-80
2023/09/26 06:14:11;;;;;;;16.33;12.98;;;12.40;99.90;;;;;;5004948;28;20045;-80
2023/09/26 06:16:37;;;;;;;13.88;12.38;;;12.40;99.90;;;;;;5002738;28;20145;-79
2023/09/26 06:19:03;;;;;;;15.55;13.82;;;12.40;99.90;;;;;;5017437;28;20037;-80
2023/09/26 06:21:28;;;;;;;15.25;13.25;;;12.40;99.90;;;;;;5018251;28;20048;-79
2023/09/26 06:23:55;;;;;;;14.20;12.68;;;12.30;99.90;;;;;;5003072;28;20084;-79
2023/09/26 06:26:21;;;;;;;15.93;12.05;;;12.40;99.90;;;;;;5019210;28;20030;-79
2023/09/26 06:28:47;;;;;;;13.55;12.13;;;12.40;99.90;;;;;;5018786;28;20859;-80
2023/09/26 06:31:14;;;;;;;13.95;12.25;;;12.50;99.90;;;;;;4999467;28;20085;-79
2023/09/26 06:33:39;;;;;;;17.13;12.60;;;12.50;99.90;;;;;;4969674;28;20091;-79
2023/09/26 06:36:13;;;;;;;13.95;12.43;;;12.50;99.90;;;;;;5000228;28;20033;-80
2023/09/26 06:38:38;;;;;;;14.52;12.85;;;12.50;99.90;;;;;;5001773;28;20131;-79
2023/09/26 06:41:07;;;;;;;17.42;13.15;;;12.60;99.90;;;;;;5003269;28;20120;-80
2023/09/26 06:43:33;;;;;;;16.38;13.05;;;12.60;99.90;;;;;;5000618;28;20516;-80
2023/09/26 06:46:08;;;;;;;15.20;12.48;;;12.60;99.90;;;;;;5017816;28;20041;-79
2023/09/26 06:48:38;;;;;;;13.77;11.00;;;12.70;99.90;;;;;;5005091;28;20053;-79
2023/09/26 06:51:05;;;;;;;15.13;13.40;;;12.80;99.90;;;;;;4989403;28;20041;-79
2023/09/26 06:53:31;;;;;;;13.27;11.90;;;12.80;99.90;;;;;;4989014;28;20048;-79
2023/09/26 06:56:02;;;;;;;13.93;12.48;;;12.90;99.90;;;;;;4999513;28;20073;-79
2023/09/26 06:58:27;;;;;;;15.35;12.90;;;12.90;99.90;;;;;;5002007;28;20049;-79
2023/09/26 07:00:53;;;;;;;14.35;12.32;;;13.00;99.90;;;;;;4986929;28;20053;-79
2023/09/26 07:03:19;;;;;;;12.85;11.32;;;13.10;99.90;;;;;;5000844;28;20124;-79
2023/09/26 07:05:44;;;;;;;16.42;11.93;;;13.10;99.90;;;;;;4986999;28;20120;-79
2023/09/26 07:08:14;;;;;;;13.07;11.65;;;13.20;99.90;;;;;;5002534;28;20077;-79
2023/09/26 07:10:40;;;;;;;12.75;11.40;;;13.20;99.90;;;;;;4972956;28;20042;-79
2023/09/26 07:13:06;;;;;;;14.85;11.27;;;13.30;99.90;;;;;;5001223;28;20077;-79
2023/09/26 07:15:32;;;;;;;13.80;11.57;;;13.30;99.90;;;;;;4985229;28;20073;-79
2023/09/26 07:17:59;;;;;;;13.48;11.20;;;13.40;99.90;;;;;;5019403;28;20049;-79
2023/09/26 07:20:28;;;;;;;14.90;11.23;;;13.40;99.90;;;;;;5000166;28;20038;-79
2023/09/26 07:22:54;;;;;;;12.73;11.15;;;13.50;99.90;;;;;;4982979;28;20080;-79
2023/09/26 07:25:21;;;;;;;15.23;12.38;;;13.50;99.90;;;;;;5014117;28;20345;-79
2023/09/26 07:27:47;;;;;;;15.20;12.20;;;13.60;99.90;;;;;;5011417;28;20095;-79
2023/09/26 07:30:13;;;;;;;13.02;11.70;;;13.60;99.90;;;;;;4997520;28;20045;-79
2023/09/26 07:32:39;;;;;;;14.85;12.45;;;13.60;99.90;;;;;;4986431;28;20683;-79
2023/09/26 07:35:05;;;;;;;14.38;12.68;;;13.70;99.90;;;;;;4972300;28;20064;-79
2023/09/26 07:37:34;;;;;;;15.75;12.82;;;13.70;99.90;;;;;;4987731;28;20076;-79
2023/09/26 07:40:01;;;;;;;15.35;13.05;;;13.80;99.90;;;;;;4997699;28;20049;-80
2023/09/26 07:42:27;;;;;;;14.65;12.07;;;13.90;99.90;;;;;;5017961;28;20042;-80
2023/09/26 07:44:56;;;;;;;15.60;12.90;;;13.90;99.90;;;;;;4982849;28;20048;-79
2023/09/26 07:47:23;;;;;;;15.00;12.25;;;14.00;99.90;;;;;;5016002;28;20588;-79
2023/09/26 07:49:49;;;;;;;13.90;12.35;;;14.10;99.90;;;;;;5015231;28;20057;-80
2023/09/26 07:52:14;;;;;;;14.20;12.00;;;14.20;99.90;;;;;;5001986;28;20045;-80
2023/09/26 07:54:40;;;;;;;13.85;12.27;;;14.30;99.90;;;;;;5018144;28;20441;-79
2023/09/26 07:57:06;;;;;;;13.32;11.93;;;14.30;99.90;;;;;;4997108;28;20048;-79
2023/09/26 07:59:31;;;;;;;13.65;11.73;;;14.30;99.90;;;;;;5013445;28;20095;-79
2023/09/26 08:01:57;;;;;;;13.68;12.15;;;14.40;99.90;;;;;;4999548;28;20123;-79
2023/09/26 08:04:23;;;;;;;14.15;11.93;;;14.40;99.90;;;;;;4984343;28;20055;-79
2023/09/26 08:06:49;;;;;;;13.60;11.65;;;14.50;99.90;;;;;;5000307;28;20148;-79
2023/09/26 08:09:15;;;;;;;13.77;12.27;;;14.60;99.90;;;;;;5000268;28;20125;-80
2023/09/26 08:11:41;;;;;;;16.08;12.57;;;14.80;99.90;;;;;;4985944;28;20042;-79
2023/09/26 08:14:07;;;;;;;16.88;12.18;;;14.80;99.90;;;;;;5017391;28;20116;-79
2023/09/26 08:16:33;;;;;;;14.07;11.38;;;14.90;99.90;;;;;;4986604;28;20036;-79
2023/09/26 08:18:59;;;;;;;13.90;12.35;;;15.00;99.90;;;;;;5002187;28;20382;-79
2023/09/26 08:21:26;;;;;;;16.05;12.40;;;15.00;99.90;;;;;;4985949;28;20099;-79
2023/09/26 08:23:53;;;;;;;14.43;12.10;;;15.10;99.90;;;;;;5001344;28;20846;-80
2023/09/26 08:26:19;;;;;;;15.05;12.02;;;15.10;99.90;;;;;;4999768;28;20049;-79
2023/09/26 08:28:45;;;;;;;14.60;12.18;;;15.10;99.90;;;;;;5004674;28;20048;-79
2023/09/26 08:31:15;;;;;;;15.43;12.95;;;15.20;99.90;;;;;;5016390;28;20457;-79
2023/09/26 08:33:43;;;;;;;15.23;12.52;;;15.30;99.90;;;;;;4992457;28;20042;-79
2023/09/26 08:36:20;;;;;;;14.38;12.02;;;15.40;99.90;;;;;;5019550;28;20509;-79
2023/09/26 08:38:50;;;;;;;15.20;12.32;;;15.40;99.90;;;;;;4987521;28;20689;-78
2023/09/26 08:41:17;;;;;;;16.92;12.32;;;15.50;99.90;;;;;;5017284;28;20486;-78
2023/09/26 08:43:44;;;;;;;15.65;12.35;;;15.50;99.90;;;;;;4987650;28;20045;-79
2023/09/26 08:46:10;;;;;;;13.60;11.95;;;15.60;99.90;;;;;;5004616;28;20139;-79
2023/09/26 08:48:37;;;;;;;14.60;11.90;;;15.80;99.90;;;;;;4998313;28;20045;-79
2023/09/26 08:51:04;;;;;;;13.20;11.80;;;15.80;99.90;;;;;;4999189;28;21312;-79
2023/09/26 08:53:29;;;;;;;14.23;12.25;;;15.90;99.90;;;;;;5000665;28;20055;-79
2023/09/26 08:55:55;;;;;;;14.25;11.90;;;15.90;99.90;;;;;;5020118;28;20046;-78
2023/09/26 08:58:24;;;;;;;16.38;12.48;;;16.00;99.90;;;;;;5018954;28;20405;-79
2023/09/26 09:00:50;;;;;;;13.75;12.32;;;16.00;99.90;;;;;;4999739;28;20167;-80
2023/09/26 09:03:16;;;;;;;17.40;12.75;;;16.00;99.90;;;;;;5018584;28;20041;-80
2023/09/26 09:05:42;;;;;;;14.75;11.85;;;16.10;99.90;;;;;;5001517;28;20467;-79
2023/09/26 09:08:08;;;;;;;16.33;12.10;;;16.10;99.90;;;;;;5000924;28;20057;-79
2023/09/26 09:10:51;;;;;;;14.02;11.35;;;16.20;99.90;;;;;;5018977;28;20087;-79
2023/09/26 09:13:30;;;;;;;13.05;11.68;;;16.20;99.90;;;;;;4999995;28;20049;-79
2023/09/26 09:16:15;;;;;;;15.77;12.40;;;16.20;99.90;;;;;;5001792;28;20124;-79
2023/09/26 09:18:50;;;;;;;13.07;11.50;;;16.30;99.90;;;;;;5019227;28;20054;-79
2023/09/26 09:21:29;;;;;;;12.82;11.20;;;16.40;99.90;;;;;;5025630;28;20266;-79
2023/09/26 09:24:06;;;;;;;14.98;10.93;;;16.60;99.90;;;;;;5014167;28;20525;-79
2023/09/26 09:26:34;;;;;;;12.93;10.32;;;16.70;99.90;;;;;;5000572;28;20478;-79
2023/09/26 09:29:17;;;;;;;14.65;11.00;;;16.90;99.90;;;;;;5008558;28;20048;-80
2023/09/26 09:31:43;;;;;;;12.60;10.50;;;17.00;99.90;;;;;;4988186;28;20135;-79
2023/09/26 09:34:09;;;;;;;12.88;10.50;;;17.00;99.90;;;;;;5001792;28;20572;-79
2023/09/26 09:36:37;;;;;;;11.23;10.05;;;17.10;99.90;;;;;;4998763;28;20048;-79
2023/09/26 09:39:03;;;;;;;12.90;10.45;;;17.20;99.90;;;;;;4995388;28;20038;-80
2023/09/26 09:41:32;;;;;;;12.50;10.00;;;17.40;99.90;;;;;;4994632;28;20362;-80
2023/09/26 09:43:57;;;;;;;11.00;8.15;;;17.50;99.90;;;;;;5034095;28;20092;-80
2023/09/26 09:46:24;;;;;;;11.40;9.65;;;17.70;99.90;;;;;;5000501;28;20041;-81
2023/09/26 09:48:55;;;;;;;11.02;9.18;;;17.80;99.90;;;;;;5011697;28;20464;-80
2023/09/26 09:51:22;;;;;;;10.40;9.35;;;18.00;99.90;;;;;;5031570;28;20518;-80
2023/09/26 09:53:53;;;;;;;12.77;10.40;;;18.00;99.90;;;;;;5032970;28;20104;-80
2023/09/26 09:56:20;;;;;;;10.93;9.50;;;18.10;99.90;;;;;;5016103;28;20053;-80
2023/09/26 09:58:50;;;;;;;10.80;9.20;;;18.10;99.90;;;;;;4999602;28;20107;-81
2023/09/26 10:01:19;;;;;;;12.35;10.18;;;18.20;99.90;;;;;;5015871;28;20132;-80
2023/09/26 10:03:50;;;;;;;10.60;9.27;;;18.20;99.90;;;;;;5015577;28;20619;-80
2023/09/26 10:06:17;;;;;;;10.50;9.40;;;18.20;99.90;;;;;;5000501;28;20061;-79
2023/09/26 10:08:44;;;;;;;11.32;9.65;;;18.20;99.90;;;;;;5030175;28;20060;-80
2023/09/26 10:11:11;;;;;;;10.13;8.95;;;18.30;99.90;;;;;;4999250;28;20037;-80
2023/09/26 10:13:37;;;;;;;10.73;9.23;;;18.50;99.90;;;;;;5015752;28;20037;-80
2023/09/26 10:16:17;;;;;;;10.13;9.13;;;18.50;99.90;;;;;;4999129;28;20049;-80
2023/09/26 10:18:45;;;;;;;9.68;8.70;;;18.60;99.90;;;;;;5016005;28;20123;-80
2023/09/26 10:21:20;;;;;;;10.65;9.43;;;18.70;99.90;;;;;;5021880;28;20045;-81
2023/09/26 10:24:21;;;;;;;11.82;9.68;;;18.70;99.90;;;;;;5009103;28;20045;-80
2023/09/26 10:26:48;;;;;;;9.55;8.60;;;18.60;99.90;;;;;;4977455;28;20061;-80
2023/09/26 10:29:14;;;;;;;10.40;9.40;;;18.60;99.90;;;;;;5013174;28;20053;-80
2023/09/26 10:31:53;;;;;;;11.10;9.68;;;18.60;99.90;;;;;;5027540;28;20037;-80
2023/09/26 10:34:21;;;;;;;9.48;8.50;;;18.60;99.90;;;;;;5002031;28;20033;-80
2023/09/26 10:36:47;;;;;;;10.73;8.88;;;18.60;99.90;;;;;;4999211;28;20041;-80
2023/09/26 10:39:14;;;;;;;10.68;9.57;;;18.60;99.90;;;;;;4999560;28;20057;-80
2023/09/26 10:41:40;;;;;;;10.48;9.40;;;18.70;99.90;;;;;;4999193;28;20037;-80
2023/09/26 10:44:06;;;;;;;10.55;9.20;;;18.60;99.90;;;;;;5015291;28;20036;-80
2023/09/26 10:46:32;;;;;;;10.30;9.25;;;18.70;99.90;;;;;;5015637;28;20080;-81
2023/09/26 10:48:58;;;;;;;11.15;9.98;;;18.60;99.90;;;;;;5029425;28;20080;-80
2023/09/26 10:51:24;;;;;;;13.60;9.88;;;18.70;99.90;;;;;;5014052;28;20037;-80
2023/09/26 10:53:50;;;;;;;11.35;9.27;;;18.70;99.90;;;;;;5015422;28;20159;-80
2023/09/26 10:56:16;;;;;;;11.50;10.32;;;18.70;99.90;;;;;;4999341;28;20103;-79
2023/09/26 10:58:42;;;;;;;10.43;9.25;;;18.70;99.90;;;;;;5015008;28;20046;-81
2023/09/26 11:01:11;;;;;;;12.73;10.10;;;18.70;99.90;;;;;;5009306;28;20060;-80
2023/09/26 11:03:37;;;;;;;11.77;10.15;;;18.70;99.90;;;;;;5015366;28;20052;-80
2023/09/26 11:06:04;;;;;;;10.80;9.55;;;18.80;99.90;;;;;;4995557;28;20041;-80
2023/09/26 11:08:30;;;;;;;11.30;10.10;;;18.80;99.90;;;;;;5007938;28;20128;-80
2023/09/26 11:10:57;;;;;;;9.73;8.65;;;18.80;99.90;;;;;;4998476;28;20119;-80
2023/09/26 11:13:24;;;;;;;11.52;9.15;;;18.90;99.90;;;;;;5006758;28;20053;-80
2023/09/26 11:15:56;;;;;;;11.35;8.65;;;19.00;99.90;;;;;;4998200;28;20037;-80
2023/09/26 11:18:22;;;;;;;9.82;8.80;;;19.10;99.90;;;;;;5014616;28;20048;-80
2023/09/26 11:20:48;;;;;;;9.00;8.10;;;19.20;99.90;;;;;;5030943;28;20045;-80
2023/09/26 11:23:33;;;;;;;11.38;8.70;;;19.20;99.90;;;;;;5014563;28;20493;-80
2023/09/26 11:26:03;;;;;;;9.80;8.50;;;19.20;99.90;;;;;;5014199;28;20041;-81
2023/09/26 11:28:30;;;;;;;9.65;8.45;;;19.30;99.90;;;;;;5006554;28;20120;-81
2023/09/26 11:30:56;;;;;;;9.85;8.20;;;19.30;99.90;;;;;;5030952;28;20041;-80
2023/09/26 11:33:22;;;;;;;8.82;8.02;;;19.30;99.90;;;;;;5008829;28;20537;-81
2023/09/26 11:35:49;;;;;;;8.13;7.38;;;19.30;99.90;;;;;;5010380;28;20056;-81
2023/09/26 11:38:14;;;;;;;8.20;7.40;;;19.30;99.90;;;;;;5016308;28;20038;-82
2023/09/26 11:40:40;;;;;;;7.40;6.70;;;19.30;99.90;;;;;;5029769;28;20090;-80
2023/09/26 11:43:06;;;;;;;8.70;7.25;;;19.30;99.90;;;;;;4997674;28;20072;-80
2023/09/26 11:45:32;;;;;;;8.75;6.53;;;19.30;99.90;;;;;;5014394;28;20076;-80
2023/09/26 11:48:00;;;;;;;7.60;6.65;;;19.20;99.90;;;;;;5010014;28;20077;-80
2023/09/26 11:50:28;;;;;;;7.80;6.85;;;19.30;99.90;;;;;;5013938;28;20041;-80
2023/09/26 11:53:00;;;;;;;7.35;6.30;;;19.30;99.90;;;;;;5024840;28;20049;-80
2023/09/26 11:55:27;;;;;;;7.75;6.65;;;19.30;99.90;;;;;;4997155;28;20516;-80
2023/09/26 11:57:53;;;;;;;8.10;7.30;;;19.30;99.90;;;;;;5025606;28;20541;-80
2023/09/26 12:00:20;;;;;;;7.95;7.25;;;19.30;99.90;;;;;;5030619;28;20052;-81
2023/09/26 12:02:50;;;;;;;9.50;7.55;;;19.40;99.90;;;;;;5013951;28;20501;-80
2023/09/26 12:05:22;;;;;;;7.53;6.32;;;19.30;99.90;;;;;;5024539;28;20041;-80
2023/09/26 12:07:49;;;;;;;7.72;6.68;;;19.40;99.90;;;;;;5028673;28;20065;-80
2023/09/26 12:10:14;;;;;;;8.63;6.90;;;19.40;99.90;;;;;;5009720;28;20478;-80
2023/09/26 12:12:40;;;;;;;10.07;6.95;;;19.40;99.90;;;;;;5016994;28;20045;-80
2023/09/26 12:15:23;;;;;;;7.10;6.38;;;19.40;99.90;;;;;;4996723;28;20107;-80
2023/09/26 12:17:50;;;;;;;7.40;6.18;;;19.50;99.90;;;;;;5023372;28;20045;-81
2023/09/26 12:20:18;;;;;;;8.07;6.88;;;19.50;99.90;;;;;;5030481;28;20447;-81
2023/09/26 12:22:44;;;;;;;7.25;6.55;;;19.60;99.90;;;;;;5013417;28;20124;-80
2023/09/26 12:25:10;;;;;;;6.88;6.18;;;19.60;99.90;;;;;;5024193;28;20124;-80
2023/09/26 12:27:36;;;;;;;7.35;5.65;;;19.70;99.90;;;;;;5010317;28;20056;-81
2023/09/26 12:30:02;;;;;;;6.15;5.55;;;19.70;99.90;;;;;;4991521;28;20033;-80
2023/09/26 12:32:27;;;;;;;7.15;5.43;;;19.80;99.90;;;;;;4998997;28;20132;-79